Time;durP1;ratioP1;P1;durP2;ratioP2;P2;SDS_P1;SDS_P2;PMS_P1;PMS_P2;Temp;Humidity;BMP_temperature;BMP_pressure;BME280_temperature;BME280_humidity;BME280_pressure;Samples;Min_cycle;Max_cycle;Signal;HPM_P1;HPM_P2
2022/12/11 00:00:01;;;;;;;68.80;51.28;;;12.50;62.00;;;;;;5038374;27;93726;-54
2022/12/11 00:02:28;;;;;;;70.82;52.13;;;12.50;62.00;;;;;;5035446;27;89890;-53
2022/12/11 00:04:53;;;;;;;69.20;51.78;;;12.50;61.70;;;;;;5045184;27;89870;-53
2022/12/11 00:07:19;;;;;;;68.80;51.80;;;12.50;62.00;;;;;;5041717;27;92983;-54
2022/12/11 00:09:45;;;;;;;68.70;52.20;;;12.50;61.80;;;;;;5037900;27;91173;-55
2022/12/11 00:12:10;;;;;;;69.82;52.50;;;12.50;61.80;;;;;;5045928;27;91494;-54
2022/12/11 00:14:36;;;;;;;68.35;52.13;;;12.50;61.80;;;;;;5021778;27;94349;-56
2022/12/11 00:17:02;;;;;;;67.95;51.50;;;12.40;61.80;;;;;;5040752;27;89835;-55
2022/12/11 00:19:28;;;;;;;68.53;52.03;;;12.40;61.80;;;;;;5030223;27;91238;-53
2022/12/11 00:21:53;;;;;;;67.93;51.45;;;12.40;61.90;;;;;;5043880;27;90354;-54
2022/12/11 00:24:19;;;;;;;67.72;51.05;;;12.40;61.70;;;;;;5052796;27;90310;-54
2022/12/11 00:26:45;;;;;;;68.15;51.53;;;12.40;61.90;;;;;;5028397;27;91192;-56
2022/12/11 00:29:13;;;;;;;68.63;51.85;;;12.40;61.80;;;;;;5026712;27;95311;-54
2022/12/11 00:31:40;;;;;;;68.80;52.35;;;12.40;61.90;;;;;;5042888;27;91697;-54
2022/12/11 00:34:07;;;;;;;67.88;51.75;;;12.50;61.90;;;;;;5028544;27;90755;-53
2022/12/11 00:36:33;;;;;;;69.72;51.70;;;12.50;61.80;;;;;;5044362;27;90045;-53
2022/12/11 00:39:00;;;;;;;69.28;51.65;;;12.40;61.80;;;;;;5040189;27;92633;-52
2022/12/11 00:41:26;;;;;;;68.03;51.00;;;12.50;61.80;;;;;;5030392;27;90112;-54
2022/12/11 00:43:52;;;;;;;67.97;51.70;;;12.40;61.60;;;;;;5041213;27;90143;-54
2022/12/11 00:46:18;;;;;;;70.20;51.65;;;12.40;61.70;;;;;;5048950;27;89686;-55
2022/12/11 00:48:45;;;;;;;70.35;52.28;;;12.40;61.70;;;;;;5031682;27;91769;-55
2022/12/11 00:51:11;;;;;;;69.63;52.22;;;12.40;61.60;;;;;;5042008;27;95261;-53
2022/12/11 00:53:37;;;;;;;69.00;51.70;;;12.40;61.80;;;;;;5030592;27;94104;-53
2022/12/11 00:56:18;;;;;;;68.30;52.03;;;12.40;61.80;;;;;;5039636;27;89843;-56
2022/12/11 00:58:45;;;;;;;68.88;52.45;;;12.40;61.60;;;;;;5033471;27;90966;-55
2022/12/11 01:01:14;;;;;;;67.90;51.90;;;12.40;61.80;;;;;;5032219;27;90933;-55
2022/12/11 01:03:40;;;;;;;69.25;52.42;;;12.40;61.90;;;;;;5043128;27;91907;-54
2022/12/11 01:06:07;;;;;;;70.63;52.00;;;12.40;61.80;;;;;;5043532;27;90941;-57
2022/12/11 01:08:32;;;;;;;67.72;51.17;;;12.40;61.80;;;;;;5039820;27;90335;-55
2022/12/11 01:11:04;;;;;;;69.25;52.15;;;12.40;61.80;;;;;;5043170;27;94106;-54
2022/12/11 01:13:30;;;;;;;;;;;12.40;61.70;;;;;;5039270;27;91701;-54
2022/12/11 01:15:55;;;;;;;68.38;51.92;;;12.40;61.60;;;;;;5032836;27;89868;-52
2022/12/11 01:18:21;;;;;;;68.10;51.67;;;12.30;61.60;;;;;;5043187;27;92685;-53
2022/12/11 01:20:47;;;;;;;69.07;52.03;;;12.30;61.80;;;;;;5051783;27;89886;-54
2022/12/11 01:23:13;;;;;;;70.38;52.38;;;12.40;61.70;;;;;;5036989;27;90852;-53
2022/12/11 01:25:40;;;;;;;68.45;52.70;;;12.40;61.70;;;;;;5040560;27;90905;-55
2022/12/11 01:28:05;;;;;;;67.88;51.72;;;12.30;61.80;;;;;;5049633;27;95078;-53
2022/12/11 01:30:31;;;;;;;67.32;51.53;;;12.40;61.70;;;;;;5038620;27;91624;-54
2022/12/11 01:32:57;;;;;;;69.40;51.90;;;12.40;61.60;;;;;;5035081;27;92986;-54
2022/12/11 01:35:23;;;;;;;70.30;53.45;;;12.40;61.60;;;;;;5026807;27;90329;-53
2022/12/11 01:37:49;;;;;;;69.65;51.63;;;12.40;61.50;;;;;;5038979;27;90802;-53
2022/12/11 01:40:17;;;;;;;68.20;51.55;;;12.40;61.50;;;;;;5044640;27;90352;-54
2022/12/11 01:42:43;;;;;;;70.10;52.47;;;12.40;61.60;;;;;;5039378;27;90698;-55
2022/12/11 01:45:21;;;;;;;67.43;51.97;;;12.30;61.70;;;;;;5043242;27;90441;-52
2022/12/11 01:47:52;;;;;;;69.30;52.10;;;12.30;61.60;;;;;;5047137;27;97197;-54
2022/12/11 01:50:18;;;;;;;69.15;52.42;;;12.30;61.50;;;;;;5033804;27;93545;-53
2022/12/11 01:52:46;;;;;;;68.30;51.85;;;12.40;61.50;;;;;;5037832;27;89805;-55
2022/12/11 01:55:12;;;;;;;70.50;52.58;;;12.40;61.50;;;;;;5041214;27;90377;-52
2022/12/11 01:57:42;;;;;;;69.65;51.85;;;12.30;61.50;;;;;;5045157;27;90741;-54
2022/12/11 02:00:09;;;;;;;70.00;52.45;;;12.30;61.50;;;;;;5038408;27;90528;-53
2022/12/11 02:02:34;;;;;;;69.38;51.50;;;12.30;61.50;;;;;;5031083;27;91094;-54
2022/12/11 02:05:05;;;;;;;68.05;52.55;;;12.30;61.40;;;;;;5042282;27;91780;-55
2022/12/11 02:07:40;;;;;;;69.27;53.03;;;12.30;61.40;;;;;;5040372;27;90208;-55
2022/12/11 02:10:07;;;;;;;70.35;52.53;;;12.30;61.50;;;;;;5023766;27;89964;-55
2022/12/11 02:13:10;;;;;;;67.80;51.67;;;12.30;61.50;;;;;;5038482;27;93545;-52
2022/12/11 02:15:39;;;;;;;68.15;52.00;;;12.30;61.60;;;;;;4978849;27;90116;-54
2022/12/11 02:18:59;;;;;;;68.15;51.80;;;12.30;61.60;;;;;;5052052;27;91807;-55
2022/12/11 02:21:33;;;;;;;70.70;52.60;;;12.30;61.60;;;;;;5038081;27;90243;-53
2022/12/11 02:24:17;;;;;;;68.28;52.58;;;12.30;61.50;;;;;;5038410;27;89667;-54
2022/12/11 02:27:20;;;;;;;68.28;51.90;;;12.30;61.50;;;;;;5040943;27;89954;-55
2022/12/11 02:29:56;;;;;;;69.28;52.45;;;12.30;61.70;;;;;;5036298;27;93931;-54
2022/12/11 02:32:44;;;;;;;68.78;51.47;;;12.30;61.50;;;;;;5047713;27;89893;-55
2022/12/11 02:35:23;;;;;;;67.55;51.33;;;12.30;61.50;;;;;;5045540;27;90071;-55
2022/12/11 02:37:59;;;;;;;68.05;51.97;;;12.30;61.50;;;;;;5045585;27;89886;-56
2022/12/11 02:40:29;;;;;;;68.28;51.63;;;12.30;61.50;;;;;;5044279;27;91917;-55
2022/12/11 02:42:58;;;;;;;68.07;52.00;;;12.30;61.50;;;;;;5052856;27;91746;-54
2022/12/11 02:45:26;;;;;;;68.55;51.80;;;12.30;61.50;;;;;;5012464;27;91982;-55
2022/12/11 02:47:51;;;;;;;68.00;51.42;;;12.20;61.50;;;;;;5040571;27;91844;-55
2022/12/11 02:50:22;;;;;;;67.20;51.58;;;12.20;61.40;;;;;;5036216;27;91080;-56
2022/12/11 02:52:50;;;;;;;69.47;52.05;;;12.30;61.50;;;;;;5047167;27;90104;-55
2022/12/11 02:55:17;;;;;;;69.45;52.13;;;12.20;61.50;;;;;;5042191;27;89856;-54
2022/12/11 02:57:58;;;;;;;69.40;52.30;;;12.20;61.50;;;;;;5042688;27;90673;-55
2022/12/11 03:00:24;;;;;;;70.13;52.07;;;12.30;61.50;;;;;;5046577;27;90215;-53
2022/12/11 03:02:50;;;;;;;67.90;51.58;;;12.20;61.40;;;;;;5044329;27;90823;-55
2022/12/11 03:05:15;;;;;;;68.57;51.53;;;12.20;61.40;;;;;;5027799;27;90629;-55
2022/12/11 03:07:43;;;;;;;68.00;51.83;;;12.20;61.40;;;;;;5041120;27;90356;-54
2022/12/11 03:10:13;;;;;;;69.18;53.17;;;12.20;61.50;;;;;;5036449;27;90631;-55
2022/12/11 03:12:42;;;;;;;68.25;51.47;;;12.20;61.40;;;;;;5056456;27;90118;-53
2022/12/11 03:15:12;;;;;;;68.10;52.10;;;12.20;61.40;;;;;;5046647;27;92191;-54
2022/12/11 03:18:06;;;;;;;68.72;52.42;;;12.20;61.50;;;;;;5028748;27;90210;-51
2022/12/11 03:20:53;;;;;;;68.55;52.25;;;12.20;61.30;;;;;;5038552;27;90179;-51
2022/12/11 03:23:34;;;;;;;69.07;52.28;;;12.20;61.50;;;;;;5032582;27;90716;-54
2022/12/11 03:26:07;;;;;;;69.53;52.10;;;12.20;61.50;;;;;;5025059;27;90290;-55
2022/12/11 03:28:44;;;;;;;68.65;52.25;;;12.20;61.60;;;;;;5040822;27;89862;-54
2022/12/11 03:31:14;;;;;;;69.75;52.45;;;12.20;61.50;;;;;;5041591;27;90928;-55
2022/12/11 03:33:44;;;;;;;69.60;52.58;;;12.20;61.40;;;;;;5048275;27;91608;-54
2022/12/11 03:36:39;;;;;;;69.10;52.67;;;12.20;61.20;;;;;;5025896;27;90619;-55
2022/12/11 03:39:27;;;;;;;69.18;52.20;;;12.20;61.40;;;;;;5046893;27;90130;-53
2022/12/11 03:41:55;;;;;;;68.63;52.47;;;12.20;61.40;;;;;;5046906;27;90664;-55
2022/12/11 03:44:21;;;;;;;69.97;52.92;;;12.20;61.40;;;;;;5033732;27;90421;-55
2022/12/11 03:46:50;;;;;;;70.07;52.97;;;12.20;61.50;;;;;;5032966;27;93369;-55
2022/12/11 03:49:23;;;;;;;70.70;53.00;;;12.10;61.50;;;;;;5037172;27;89622;-52
2022/12/11 03:51:51;;;;;;;69.72;52.35;;;12.10;61.40;;;;;;5035505;27;91403;-54
2022/12/11 03:54:18;;;;;;;69.22;52.20;;;12.10;61.40;;;;;;5035570;27;93290;-54
2022/12/11 03:56:45;;;;;;;69.65;52.55;;;12.20;61.50;;;;;;5038842;27;91878;-54
2022/12/11 03:59:11;;;;;;;70.13;53.55;;;12.20;61.50;;;;;;5032903;27;96307;-54
2022/12/11 04:01:37;;;;;;;70.30;53.17;;;12.10;61.30;;;;;;5042495;27;97997;-54
2022/12/11 04:04:03;;;;;;;69.97;53.42;;;12.10;61.50;;;;;;5039292;27;89992;-55
2022/12/11 04:06:28;;;;;;;68.72;52.90;;;12.10;61.40;;;;;;5040545;27;91509;-55
2022/12/11 04:08:54;;;;;;;71.45;52.67;;;12.10;61.40;;;;;;5045332;27;93003;-55
2022/12/11 04:11:35;;;;;;;69.78;52.88;;;12.10;61.40;;;;;;5043081;27;91015;-55
2022/12/11 04:16:51;;;;;;;70.18;52.88;;;12.10;61.40;;;;;;5036230;27;89809;-53
2022/12/11 04:24:49;;;;;;;71.68;54.25;;;12.10;61.30;;;;;;5037444;27;91406;-53
2022/12/11 04:30:01;;;;;;;70.15;53.35;;;12.10;61.40;;;;;;5045994;27;89980;-54
2022/12/11 04:32:27;;;;;;;70.65;52.80;;;12.10;61.50;;;;;;5033307;27;90364;-54
2022/12/11 04:34:52;;;;;;;70.65;53.28;;;12.20;61.40;;;;;;5049288;27;95217;-53
2022/12/11 04:37:18;;;;;;;71.68;53.00;;;12.10;61.40;;;;;;5046434;27;89828;-53
2022/12/11 04:39:44;;;;;;;72.80;54.25;;;12.10;61.40;;;;;;5044245;27;90173;-55
2022/12/11 04:42:09;;;;;;;68.97;53.03;;;12.10;61.50;;;;;;5038731;27;91160;-53
2022/12/11 04:44:35;;;;;;;70.40;53.33;;;12.10;61.40;;;;;;5034547;27;90096;-55
2022/12/11 04:47:00;;;;;;;71.88;54.70;;;12.10;61.40;;;;;;5029313;27;91008;-54
2022/12/11 04:49:26;;;;;;;69.80;53.28;;;12.10;61.40;;;;;;5045364;27;92204;-53
2022/12/11 04:51:52;;;;;;;67.97;53.03;;;12.10;61.50;;;;;;5036511;27;98225;-54
2022/12/11 04:54:17;;;;;;;70.90;53.60;;;12.10;61.40;;;;;;5032261;27;92776;-54
2022/12/11 04:56:43;;;;;;;73.35;54.85;;;12.10;61.30;;;;;;5041388;27;90518;-54
2022/12/11 04:59:09;;;;;;;72.18;54.13;;;12.00;61.10;;;;;;5027583;27;89677;-53
2022/12/11 05:01:34;;;;;;;75.47;54.70;;;12.00;61.20;;;;;;5039818;27;90749;-54
2022/12/11 05:04:00;;;;;;;73.15;54.63;;;11.90;61.10;;;;;;5041785;27;89560;-52
2022/12/11 05:06:25;;;;;;;75.10;54.92;;;11.90;61.40;;;;;;5043917;27;96822;-55
2022/12/11 05:08:51;;;;;;;73.50;55.15;;;11.90;61.80;;;;;;5031070;27;92109;-54
2022/12/11 05:11:17;;;;;;;72.20;53.92;;;11.90;61.90;;;;;;5038250;27;94327;-55
2022/12/11 05:13:43;;;;;;;73.97;55.00;;;11.80;62.30;;;;;;5037742;27;90949;-52
2022/12/11 05:16:11;;;;;;;71.78;54.67;;;11.80;62.40;;;;;;5038136;27;91377;-54
2022/12/11 05:18:37;;;;;;;75.57;56.28;;;11.80;62.40;;;;;;5031898;27;93747;-52
2022/12/11 05:21:11;;;;;;;78.70;56.60;;;11.90;62.50;;;;;;5034603;27;92276;-53
2022/12/11 05:23:38;;;;;;;74.13;55.97;;;11.90;62.60;;;;;;5047307;27;91083;-53
2022/12/11 05:26:10;;;;;;;73.65;55.60;;;12.00;62.40;;;;;;5038269;27;89894;-54
2022/12/11 05:28:37;;;;;;;73.07;54.45;;;12.00;62.30;;;;;;5034585;27;89509;-53
2022/12/11 05:31:10;;;;;;;81.93;56.85;;;12.10;62.40;;;;;;5049636;27;90285;-55
2022/12/11 05:33:36;;;;;;;73.20;55.83;;;12.20;62.10;;;;;;5040409;27;90176;-54
2022/12/11 05:36:02;;;;;;;74.35;55.20;;;12.20;61.90;;;;;;5042107;27;93125;-53
2022/12/11 05:38:28;;;;;;;75.97;56.17;;;12.30;61.70;;;;;;5027819;27;90623;-55
2022/12/11 05:41:04;;;;;;;76.72;55.42;;;12.30;61.60;;;;;;5038103;27;90025;-54
2022/12/11 05:43:33;;;;;;;73.90;55.28;;;12.40;61.50;;;;;;5042134;27;90039;-55
2022/12/11 05:46:12;;;;;;;76.10;55.63;;;12.50;61.30;;;;;;5044715;27;90039;-54
2022/12/11 05:48:38;;;;;;;73.47;54.50;;;12.40;61.30;;;;;;5047867;27;90188;-54
2022/12/11 05:51:05;;;;;;;74.85;55.33;;;12.50;61.10;;;;;;5025555;27;90704;-53
2022/12/11 05:53:32;;;;;;;75.03;56.15;;;12.50;61.20;;;;;;5037821;27;90746;-54
2022/12/11 05:56:25;;;;;;;72.95;54.85;;;12.50;61.10;;;;;;5037626;27;91198;-55
2022/12/11 05:58:52;;;;;;;74.88;54.38;;;12.60;61.30;;;;;;5025062;27;90164;-54
2022/12/11 06:01:24;;;;;;;77.22;55.25;;;12.70;61.00;;;;;;5050665;27;91154;-53
2022/12/11 06:03:49;;;;;;;73.03;54.58;;;12.70;61.00;;;;;;5037786;27;91863;-55
2022/12/11 06:06:15;;;;;;;75.97;55.55;;;12.80;60.80;;;;;;5033774;27;89982;-54
2022/12/11 06:08:41;;;;;;;75.75;54.88;;;12.90;60.40;;;;;;5044976;27;91291;-55
2022/12/11 06:11:07;;;;;;;75.43;55.17;;;12.90;60.20;;;;;;5042171;27;92028;-52
2022/12/11 06:13:34;;;;;;;74.97;56.22;;;12.90;60.20;;;;;;5021964;27;90880;-53
2022/12/11 06:16:05;;;;;;;72.53;54.88;;;12.90;60.10;;;;;;5042917;27;94032;-52
2022/12/11 06:18:34;;;;;;;74.70;54.92;;;12.90;60.10;;;;;;5045256;27;89200;-52
2022/12/11 06:20:59;;;;;;;72.60;54.17;;;13.00;60.10;;;;;;5045260;27;90773;-52
2022/12/11 06:23:25;;;;;;;75.88;55.38;;;13.00;60.10;;;;;;5042468;27;92800;-53
2022/12/11 06:25:50;;;;;;;73.28;54.67;;;13.00;60.00;;;;;;5044110;27;91175;-53
2022/12/11 06:28:16;;;;;;;73.70;54.30;;;13.00;59.90;;;;;;5037930;27;89984;-50
2022/12/11 06:30:42;;;;;;;72.85;54.47;;;13.00;60.00;;;;;;5029084;27;92091;-51
2022/12/11 06:33:07;;;;;;;73.32;55.20;;;13.00;59.80;;;;;;5033592;27;93785;-52
2022/12/11 06:35:33;;;;;;;76.30;55.53;;;13.00;59.90;;;;;;5041531;27;90718;-53
2022/12/11 06:37:59;;;;;;;74.93;55.28;;;13.00;59.80;;;;;;5030633;27;90063;-53
2022/12/11 06:40:24;;;;;;;72.75;54.65;;;13.00;60.00;;;;;;5037967;27;90833;-55
2022/12/11 06:42:50;;;;;;;74.70;55.83;;;13.00;60.00;;;;;;5045379;27;91000;-52
2022/12/11 06:45:15;;;;;;;74.10;54.75;;;13.00;60.00;;;;;;5028566;27;92428;-51
2022/12/11 06:47:41;;;;;;;78.93;57.67;;;13.00;59.70;;;;;;5029796;27;96262;-51
2022/12/11 06:50:07;;;;;;;82.30;59.10;;;13.00;59.80;;;;;;5017126;27;92043;-51
2022/12/11 06:52:33;;;;;;;81.32;58.53;;;13.00;60.00;;;;;;5044321;27;93761;-48
2022/12/11 06:54:59;;;;;;;79.55;57.60;;;13.00;60.00;;;;;;5040841;27;89995;-52
2022/12/11 06:57:25;;;;;;;77.90;57.70;;;13.00;60.20;;;;;;5046311;27;91584;-53
2022/12/11 06:59:50;;;;;;;79.55;57.95;;;13.10;60.00;;;;;;5041018;27;90099;-49
2022/12/11 07:02:18;;;;;;;77.38;57.40;;;13.20;59.80;;;;;;5046452;27;90796;-52
2022/12/11 07:04:44;;;;;;;80.20;57.08;;;13.30;59.60;;;;;;5021747;27;90427;-48
2022/12/11 07:07:10;;;;;;;79.13;57.42;;;13.40;59.30;;;;;;5036145;27;93417;-51
2022/12/11 07:09:38;;;;;;;78.57;57.30;;;13.40;59.30;;;;;;5034678;27;91507;-51
2022/12/11 07:12:05;;;;;;;77.40;56.63;;;13.40;59.00;;;;;;5042781;27;95201;-53
2022/12/11 07:14:31;;;;;;;78.47;57.70;;;13.40;59.10;;;;;;5033411;27;92462;-52
2022/12/11 07:16:57;;;;;;;78.20;56.58;;;13.50;59.00;;;;;;5053995;27;90027;-52
2022/12/11 07:19:23;;;;;;;76.53;56.97;;;13.50;59.10;;;;;;5042739;27;90311;-48
2022/12/11 07:21:49;;;;;;;76.78;56.40;;;13.50;59.10;;;;;;5046089;27;90502;-52
2022/12/11 07:24:15;;;;;;;78.20;56.63;;;13.50;59.00;;;;;;5053238;27;90320;-53
2022/12/11 07:26:41;;;;;;;79.60;56.47;;;13.40;59.00;;;;;;5040802;27;94752;-48
2022/12/11 07:29:06;;;;;;;77.80;57.42;;;13.40;59.10;;;;;;5039229;27;90092;-53
2022/12/11 07:31:32;;;;;;;75.47;56.67;;;13.40;59.10;;;;;;5044128;27;89180;-53
2022/12/11 07:34:01;;;;;;;78.78;56.60;;;13.40;59.10;;;;;;5043584;27;90508;-50
2022/12/11 07:36:28;;;;;;;78.78;57.50;;;13.50;59.20;;;;;;5037712;27;89815;-53
2022/12/11 07:38:54;;;;;;;77.13;56.65;;;13.50;59.10;;;;;;5036856;27;93511;-50
2022/12/11 07:41:20;;;;;;;76.63;56.28;;;13.50;59.10;;;;;;5045721;27;91144;-53
2022/12/11 07:43:46;;;;;;;78.65;56.75;;;13.50;58.90;;;;;;5049751;27;89492;-48
2022/12/11 07:46:19;;;;;;;78.38;57.08;;;13.50;58.80;;;;;;5041274;27;92660;-50
2022/12/11 07:48:46;;;;;;;73.53;54.92;;;13.60;58.80;;;;;;5033904;27;90901;-53
2022/12/11 07:51:21;;;;;;;78.32;55.95;;;13.60;58.80;;;;;;5049381;27;90087;-52
2022/12/11 07:53:48;;;;;;;76.97;56.10;;;13.50;58.70;;;;;;5047925;27;95076;-52
2022/12/11 07:56:15;;;;;;;75.20;54.88;;;13.60;58.90;;;;;;5042881;27;88782;-49
2022/12/11 07:58:42;;;;;;;78.00;56.90;;;13.60;58.90;;;;;;5037064;27;92569;-53
2022/12/11 08:01:15;;;;;;;78.88;58.20;;;13.50;58.60;;;;;;5044533;27;96589;-52
2022/12/11 08:03:41;;;;;;;80.13;57.97;;;13.50;58.70;;;;;;5040159;27;95684;-49
2022/12/11 08:06:08;;;;;;;79.07;58.05;;;13.40;58.70;;;;;;5040397;27;92374;-52
2022/12/11 08:08:33;;;;;;;78.75;56.58;;;13.50;58.90;;;;;;5037868;27;90678;-51
2022/12/11 08:11:04;;;;;;;75.82;56.08;;;13.50;59.50;;;;;;5035392;27;90802;-49
2022/12/11 08:13:30;;;;;;;77.18;56.22;;;13.60;58.60;;;;;;5033928;27;91982;-52
2022/12/11 08:15:55;;;;;;;78.72;56.38;;;13.60;58.50;;;;;;5040326;27;91163;-50
2022/12/11 08:18:21;;;;;;;79.63;57.28;;;13.70;58.50;;;;;;5048338;27;93593;-52
2022/12/11 08:20:47;;;;;;;77.45;56.20;;;13.70;58.30;;;;;;5050303;27;89817;-53
2022/12/11 08:23:12;;;;;;;76.45;56.33;;;13.70;58.20;;;;;;5040383;27;89939;-52
2022/12/11 08:25:38;;;;;;;76.28;56.28;;;13.80;58.10;;;;;;5038751;27;90057;-49
2022/12/11 08:28:04;;;;;;;77.05;56.45;;;13.80;58.30;;;;;;5041708;27;91406;-52
2022/12/11 08:30:30;;;;;;;77.78;57.47;;;13.80;58.00;;;;;;5033763;27;90992;-53
2022/12/11 08:32:56;;;;;;;76.25;56.03;;;13.80;58.10;;;;;;5022478;27;94803;-52
2022/12/11 08:35:22;;;;;;;77.55;56.63;;;13.80;57.90;;;;;;5038284;27;90068;-50
2022/12/11 08:37:48;;;;;;;76.03;56.08;;;13.80;57.80;;;;;;5026651;27;92038;-52
2022/12/11 08:40:13;;;;;;;75.75;55.85;;;13.90;57.80;;;;;;5048206;27;90346;-52
2022/12/11 08:42:39;;;;;;;77.20;56.30;;;13.90;57.80;;;;;;5038712;27;92535;-52
2022/12/11 08:45:05;;;;;;;75.03;55.83;;;13.90;57.90;;;;;;5046486;27;91261;-50
2022/12/11 08:47:31;;;;;;;77.35;55.50;;;13.80;57.80;;;;;;5019241;27;91854;-51
2022/12/11 08:49:56;;;;;;;76.18;56.17;;;13.90;57.80;;;;;;5046787;27;90792;-54
2022/12/11 08:52:22;;;;;;;76.18;55.88;;;13.80;57.90;;;;;;5022911;27;99274;-53
2022/12/11 08:54:48;;;;;;;76.20;56.30;;;13.80;57.90;;;;;;5030695;27;90594;-53
2022/12/11 08:57:14;;;;;;;80.95;56.28;;;13.80;57.70;;;;;;5025311;27;90285;-54
2022/12/11 08:59:39;;;;;;;78.70;56.10;;;13.80;58.00;;;;;;5024291;27;91000;-51
2022/12/11 09:02:06;;;;;;;79.78;55.78;;;13.80;58.20;;;;;;5043592;27;90279;-52
2022/12/11 09:04:31;;;;;;;77.30;56.25;;;13.90;58.30;;;;;;5008664;27;90761;-51
2022/12/11 09:06:57;;;;;;;76.90;55.67;;;13.90;58.10;;;;;;5035174;27;90322;-54
2022/12/11 09:09:23;;;;;;;76.40;55.95;;;14.00;58.10;;;;;;5030659;27;89827;-51
2022/12/11 09:11:49;;;;;;;76.38;55.45;;;14.10;58.00;;;;;;5047375;27;92229;-51
2022/12/11 09:14:15;;;;;;;75.82;55.53;;;14.10;57.90;;;;;;5042237;27;90712;-50
2022/12/11 09:16:40;;;;;;;76.63;55.50;;;14.20;58.30;;;;;;5047861;27;91628;-49
2022/12/11 09:19:08;;;;;;;76.40;56.05;;;14.20;57.80;;;;;;5034123;27;91474;-50
2022/12/11 09:21:33;;;;;;;76.00;55.80;;;14.20;57.70;;;;;;5038508;27;90749;-55
2022/12/11 09:24:00;;;;;;;77.43;55.83;;;14.20;57.80;;;;;;5030701;27;96522;-55
2022/12/11 09:26:28;;;;;;;77.88;56.20;;;14.30;57.70;;;;;;5010694;27;95634;-56
2022/12/11 09:28:54;;;;;;;76.22;55.55;;;14.30;57.70;;;;;;5040997;27;90085;-56
2022/12/11 09:31:25;;;;;;;77.00;55.67;;;14.30;57.60;;;;;;5034481;27;91219;-55
2022/12/11 09:33:55;;;;;;;81.40;56.60;;;14.20;58.00;;;;;;5035181;27;92761;-54
2022/12/11 09:36:21;;;;;;;77.38;56.08;;;14.20;58.30;;;;;;5045692;27;90726;-55
2022/12/11 09:38:47;;;;;;;85.75;56.42;;;14.30;58.30;;;;;;5038023;27;92320;-55
2022/12/11 09:41:21;;;;;;;77.18;55.88;;;14.30;58.20;;;;;;5036238;27;90872;-52
2022/12/11 09:43:49;;;;;;;82.22;56.40;;;14.30;58.20;;;;;;5042084;27;90145;-56
2022/12/11 09:46:16;;;;;;;79.20;57.40;;;14.30;58.20;;;;;;5051186;27;90374;-55
2022/12/11 09:48:45;;;;;;;80.50;57.38;;;14.20;58.20;;;;;;5034850;27;90709;-54
2022/12/11 09:51:17;;;;;;;78.13;56.00;;;14.20;58.30;;;;;;5036686;27;92310;-55
2022/12/11 09:53:44;;;;;;;76.65;55.05;;;14.20;58.20;;;;;;5035302;27;92895;-55
2022/12/11 09:56:24;;;;;;;76.15;55.97;;;14.20;58.50;;;;;;5022115;27;91865;-57
2022/12/11 09:58:59;;;;;;;78.53;55.65;;;14.40;58.00;;;;;;5033435;27;90570;-56
2022/12/11 10:02:01;;;;;;;79.95;55.08;;;14.60;57.50;;;;;;5041529;27;89968;-57
2022/12/11 10:04:39;;;;;;;79.30;55.75;;;14.70;57.30;;;;;;5035479;27;93944;-56
2022/12/11 10:07:21;;;;;;;77.68;56.35;;;14.80;56.80;;;;;;5040372;27;91176;-58
2022/12/11 10:10:43;;;;;;;77.40;55.80;;;14.90;56.90;;;;;;5041598;27;90664;-56
2022/12/11 10:13:32;;;;;;;75.93;55.90;;;15.00;56.80;;;;;;5000503;27;91427;-58
2022/12/11 10:16:36;;;;;;;74.88;54.83;;;15.00;56.70;;;;;;5029891;27;90031;-58
2022/12/11 10:19:02;;;;;;;76.05;54.80;;;15.10;56.50;;;;;;5029062;27;91684;-54
2022/12/11 10:21:37;;;;;;;76.47;55.00;;;15.10;56.40;;;;;;5026513;27;90366;-57
2022/12/11 10:24:09;;;;;;;75.03;54.83;;;15.00;56.60;;;;;;5036970;27;92091;-56
2022/12/11 10:26:38;;;;;;;78.28;54.83;;;15.00;56.40;;;;;;5043263;27;89044;-54
2022/12/11 10:29:11;;;;;;;77.90;55.45;;;15.10;57.00;;;;;;5037339;27;90804;-56
2022/12/11 10:31:43;;;;;;;76.53;54.97;;;15.10;56.60;;;;;;5039905;27;92118;-57
2022/12/11 10:34:19;;;;;;;77.43;54.40;;;15.10;56.30;;;;;;5029125;27;93605;-56
2022/12/11 10:36:45;;;;;;;78.18;54.47;;;15.10;56.50;;;;;;5040267;27;89949;-57
2022/12/11 10:39:21;;;;;;;76.07;54.35;;;15.10;56.50;;;;;;5040571;27;90319;-57
2022/12/11 10:41:49;;;;;;;76.30;54.50;;;15.20;56.20;;;;;;5048523;27;93325;-57
2022/12/11 10:44:25;;;;;;;75.95;54.45;;;15.20;56.20;;;;;;5044296;27;90693;-58
2022/12/11 10:47:11;;;;;;;76.22;54.30;;;15.20;56.10;;;;;;5039663;27;89822;-58
2022/12/11 10:49:41;;;;;;;75.72;54.30;;;15.20;55.90;;;;;;5033684;27;90256;-57
2022/12/11 10:52:23;;;;;;;76.78;54.40;;;15.10;55.90;;;;;;5036484;27;91484;-58
2022/12/11 10:54:59;;;;;;;74.65;54.03;;;15.20;55.90;;;;;;5038885;27;89671;-57
2022/12/11 10:57:36;;;;;;;74.57;53.75;;;15.20;55.90;;;;;;5035270;27;91177;-55
2022/12/11 11:00:05;;;;;;;75.63;54.15;;;15.10;55.90;;;;;;5028866;27;94944;-57
2022/12/11 11:02:35;;;;;;;75.38;54.20;;;15.10;55.80;;;;;;5041468;27;90599;-57
2022/12/11 11:05:16;;;;;;;76.63;54.35;;;15.00;56.30;;;;;;5036408;27;89890;-57
2022/12/11 11:07:42;;;;;;;77.45;54.15;;;15.00;56.20;;;;;;5047814;27;94162;-56
2022/12/11 11:10:11;;;;;;;81.28;54.72;;;15.00;56.30;;;;;;5045865;27;95033;-58
2022/12/11 11:12:42;;;;;;;86.55;55.40;;;14.90;56.30;;;;;;5031798;27;90545;-57
2022/12/11 11:15:21;;;;;;;77.00;54.75;;;14.90;56.20;;;;;;5027829;27;90435;-57
2022/12/11 11:17:52;;;;;;;81.70;54.53;;;14.90;56.00;;;;;;5045361;27;90505;-56
2022/12/11 11:20:22;;;;;;;77.55;54.75;;;14.90;55.80;;;;;;5024296;27;90923;-56
2022/12/11 11:22:51;;;;;;;77.18;54.22;;;15.00;55.70;;;;;;5042435;27;89944;-58
2022/12/11 11:25:22;;;;;;;76.38;54.03;;;15.00;55.50;;;;;;5018688;27;91686;-56
2022/12/11 11:28:14;;;;;;;80.47;54.13;;;15.00;55.60;;;;;;5033542;27;93526;-56
2022/12/11 11:30:41;;;;;;;79.18;54.03;;;15.00;55.50;;;;;;5036814;27;91107;-56
2022/12/11 11:33:17;;;;;;;77.50;53.80;;;15.00;55.50;;;;;;5033640;27;90552;-53
2022/12/11 11:35:57;;;;;;;80.20;54.92;;;15.00;55.80;;;;;;5039136;27;90449;-51
2022/12/11 11:38:36;;;;;;;77.55;54.10;;;15.10;56.60;;;;;;5047971;27;89678;-54
2022/12/11 11:41:06;;;;;;;80.78;55.42;;;15.00;56.00;;;;;;5043727;27;90044;-53
2022/12/11 11:43:37;;;;;;;76.95;53.88;;;15.00;55.90;;;;;;5015338;27;91862;-53
2022/12/11 11:46:07;;;;;;;;;;;15.00;56.20;;;;;;5040456;27;89924;-54
2022/12/11 11:48:55;;;;;;;78.80;54.97;;;15.00;56.00;;;;;;5038434;27;90044;-54
2022/12/11 11:51:46;;;;;;;76.95;54.03;;;15.00;55.90;;;;;;5031072;27;91875;-53
2022/12/11 11:54:29;;;;;;;77.75;54.90;;;15.00;55.90;;;;;;5036743;27;90144;-55
2022/12/11 11:56:56;;;;;;;77.55;54.72;;;15.00;56.10;;;;;;5038148;27;92664;-52
2022/12/11 11:59:33;;;;;;;75.93;53.20;;;15.00;56.40;;;;;;5039719;27;90622;-54
2022/12/11 12:01:59;;;;;;;79.05;54.15;;;14.90;56.70;;;;;;5045563;27;91670;-51
2022/12/11 12:04:32;;;;;;;82.28;54.35;;;14.90;57.30;;;;;;5030789;27;94428;-55
2022/12/11 12:07:13;;;;;;;77.75;53.65;;;14.90;57.80;;;;;;5016280;27;93020;-58
2022/12/11 12:09:51;;;;;;;81.00;56.08;;;14.90;57.90;;;;;;5015782;27;90728;-49
2022/12/11 12:12:17;;;;;;;79.38;55.20;;;15.00;58.20;;;;;;5022124;27;90947;-59
2022/12/11 12:14:53;;;;;;;80.78;55.38;;;14.90;58.80;;;;;;5034075;27;90285;-59
2022/12/11 12:17:38;;;;;;;76.75;55.38;;;15.00;58.90;;;;;;5041257;27;91424;-58
2022/12/11 12:20:23;;;;;;;81.05;54.67;;;15.10;59.50;;;;;;5038030;27;90562;-61
2022/12/11 12:23:07;;;;;;;76.03;54.13;;;15.20;59.50;;;;;;5037463;27;89831;-59
2022/12/11 12:25:55;;;;;;;78.38;55.03;;;15.30;59.60;;;;;;5039137;27;93216;-57
2022/12/11 12:28:27;;;;;;;79.05;53.92;;;15.40;59.80;;;;;;5028902;27;91671;-58
2022/12/11 12:31:16;;;;;;;80.47;54.75;;;15.50;59.70;;;;;;5036294;27;96584;-61
2022/12/11 12:33:54;;;;;;;74.75;53.40;;;15.60;60.00;;;;;;5033708;27;96333;-63
2022/12/11 12:36:43;;;;;;;74.43;53.45;;;15.60;59.70;;;;;;5039618;27;89968;-58
2022/12/11 12:39:17;;;;;;;76.80;54.10;;;15.60;59.80;;;;;;5004074;27;90320;-56
2022/12/11 12:41:52;;;;;;;78.53;54.85;;;15.60;59.80;;;;;;5020975;27;90039;-53
2022/12/11 12:44:21;;;;;;;74.90;53.75;;;15.60;59.60;;;;;;5021054;27;92270;-58
2022/12/11 12:47:02;;;;;;;80.05;53.60;;;15.60;59.80;;;;;;5013532;27;91624;-59
2022/12/11 12:49:40;;;;;;;79.22;54.08;;;15.80;59.80;;;;;;5018958;27;91688;-58
2022/12/11 12:52:16;;;;;;;76.85;53.90;;;15.80;59.60;;;;;;5016425;27;91544;-57
2022/12/11 12:55:12;;;;;;;78.30;54.33;;;15.80;59.50;;;;;;5012289;27;90393;-58